createdAt,value
2023-01-11T00:00:48.408Z,6.01
2023-01-11T00:03:16.319Z,6.11
2023-01-11T00:05:44.527Z,6.13
2023-01-11T00:08:12.305Z,6.03
2023-01-11T00:10:40.043Z,6.06
2023-01-11T00:13:07.628Z,6.06
2023-01-11T00:15:36.606Z,6.06
2023-01-11T00:18:03.674Z,5.99
2023-01-11T00:20:30.587Z,6.08
2023-01-11T00:22:57.639Z,6.11
2023-01-11T00:25:24.942Z,6.03
2023-01-11T00:27:51.915Z,5.97
2023-01-11T00:30:19.475Z,5.97
2023-01-11T00:32:46.794Z,5.96
2023-01-11T00:35:14.071Z,6.03
2023-01-11T00:37:41.092Z,5.98
2023-01-11T00:40:08.740Z,5.99
2023-01-11T00:42:54.184Z,5.98
2023-01-11T00:45:39.622Z,5.88
2023-01-11T00:48:07.245Z,5.96
2023-01-11T00:50:37.015Z,5.98
2023-01-11T00:53:05.053Z,5.90
2023-01-11T00:55:32.207Z,5.99
2023-01-11T00:58:00.101Z,5.93
2023-01-11T01:00:28.564Z,5.91
2023-01-11T01:02:55.634Z,5.89
2023-01-11T01:05:22.503Z,5.94
2023-01-11T01:07:49.708Z,5.89
2023-01-11T01:10:18.463Z,5.75
2023-01-11T01:13:04.848Z,5.68
2023-01-11T01:15:33.165Z,5.29
2023-01-11T01:18:00.171Z,5.83
2023-01-11T01:20:27.511Z,5.85
2023-01-11T01:22:54.553Z,5.79
2023-01-11T01:25:21.565Z,5.76
2023-01-11T01:27:48.562Z,5.82
2023-01-11T01:30:15.774Z,5.81
2023-01-11T01:32:43.106Z,5.71
2023-01-11T01:35:10.411Z,5.63
2023-01-11T01:37:37.538Z,5.70
2023-01-11T01:40:05.846Z,5.34
2023-01-11T01:42:32.847Z,5.61
2023-01-11T01:45:07.088Z,5.58
2023-01-11T01:47:49.139Z,5.67
2023-01-11T01:50:20.966Z,5.59
2023-01-11T01:52:53.536Z,5.63
2023-01-11T01:55:28.862Z,5.59
2023-01-11T01:57:58.061Z,5.66
2023-01-11T02:00:25.148Z,5.59
2023-01-11T02:02:52.938Z,5.58
2023-01-11T02:05:21.052Z,5.60
2023-01-11T02:07:48.396Z,5.57
2023-01-11T02:10:17.189Z,5.60
2023-01-11T02:13:12.865Z,5.54
2023-01-11T02:15:40.835Z,5.59
2023-01-11T02:18:20.346Z,5.57
2023-01-11T02:21:12.548Z,5.57
2023-01-11T02:24:10.009Z,5.58
2023-01-11T02:26:36.824Z,5.64
2023-01-11T02:29:31.353Z,5.66
2023-01-11T02:32:33.624Z,5.60
2023-01-11T02:35:28.320Z,5.62
2023-01-11T02:38:25.744Z,5.54
2023-01-11T02:41:15.652Z,5.54
2023-01-11T02:44:22.849Z,5.57
2023-01-11T02:46:58.708Z,5.54
2023-01-11T02:49:45.980Z,5.52
2023-01-11T02:52:20.790Z,5.47
2023-01-11T02:54:54.648Z,5.43
2023-01-11T02:57:23.873Z,5.50
2023-01-11T02:59:51.422Z,5.52
2023-01-11T03:02:18.541Z,5.50
2023-01-11T03:04:45.351Z,5.44
2023-01-11T03:07:30.310Z,5.52
2023-01-11T03:10:06.394Z,5.52
2023-01-11T03:12:57.904Z,5.59
2023-01-11T03:15:43.573Z,5.58
2023-01-11T03:18:34.177Z,5.60
2023-01-11T03:21:26.742Z,5.54
2023-01-11T03:24:15.855Z,5.44
2023-01-11T03:26:50.069Z,5.39
2023-01-11T03:29:25.867Z,5.36
2023-01-11T03:32:14.454Z,5.00
2023-01-11T03:35:13.039Z,5.46
2023-01-11T03:37:46.814Z,5.43
2023-01-11T03:40:27.911Z,5.48
2023-01-11T03:43:11.633Z,5.45
2023-01-11T03:45:44.655Z,5.50
2023-01-11T03:48:17.993Z,5.45
2023-01-11T03:50:47.743Z,5.49
2023-01-11T03:53:17.410Z,5.58
2023-01-11T03:55:48.112Z,5.40
2023-01-11T03:58:15.253Z,5.44
2023-01-11T04:00:42.874Z,5.37
2023-01-11T04:03:12.877Z,5.36
2023-01-11T04:05:43.868Z,5.37
2023-01-11T04:08:11.614Z,5.22
2023-01-11T04:10:38.618Z,5.27
2023-01-11T04:13:05.528Z,5.30
2023-01-11T04:15:34.748Z,5.31
2023-01-11T04:18:05.557Z,5.28
2023-01-11T04:20:37.200Z,5.30
2023-01-11T04:23:05.360Z,5.10
2023-01-11T04:25:32.415Z,5.26
2023-01-11T04:28:00.286Z,5.36
2023-01-11T04:30:27.627Z,5.40
2023-01-11T04:32:54.542Z,5.40
2023-01-11T04:35:21.586Z,5.39
2023-01-11T04:37:48.927Z,5.41
2023-01-11T04:40:16.282Z,5.46
2023-01-11T04:42:43.242Z,5.48
2023-01-11T04:45:10.415Z,5.47
2023-01-11T04:47:37.301Z,5.41
2023-01-11T04:50:04.687Z,5.47
2023-01-11T04:52:31.719Z,5.47
2023-01-11T04:54:58.563Z,5.50
2023-01-11T04:57:25.516Z,5.52
2023-01-11T04:59:52.460Z,5.48
2023-01-11T05:02:20.727Z,5.47
2023-01-11T05:04:47.620Z,5.40
2023-01-11T05:07:14.485Z,5.45
2023-01-11T05:09:41.270Z,5.34
2023-01-11T05:12:08.250Z,5.37
2023-01-11T05:14:35.092Z,5.47
2023-01-11T05:17:02.002Z,5.47
2023-01-11T05:19:28.896Z,5.42
2023-01-11T05:21:55.847Z,5.47
2023-01-11T05:24:22.728Z,5.44
2023-01-11T05:26:50.319Z,5.37
2023-01-11T05:29:19.288Z,5.47
2023-01-11T05:31:46.168Z,5.36
2023-01-11T05:34:14.690Z,5.34
2023-01-11T05:36:42.668Z,5.53
2023-01-11T05:39:12.141Z,5.32
2023-01-11T05:41:39.372Z,5.50
2023-01-11T05:44:26.305Z,5.45
2023-01-11T05:46:53.244Z,5.48
2023-01-11T05:49:20.155Z,5.48
2023-01-11T05:51:47.102Z,5.50
2023-01-11T05:54:15.023Z,5.43
2023-01-11T05:56:44.976Z,5.51
2023-01-11T05:59:12.198Z,5.56
2023-01-11T06:01:39.567Z,5.46
2023-01-11T06:04:06.768Z,5.50
2023-01-11T06:06:33.807Z,5.51
2023-01-11T06:09:00.933Z,5.55
2023-01-11T06:11:27.910Z,5.49
2023-01-11T06:13:54.787Z,5.40
2023-01-11T06:16:22.518Z,5.60
2023-01-11T06:18:51.936Z,5.08
2023-01-11T06:21:19.693Z,5.68
2023-01-11T06:23:50.757Z,5.60
2023-01-11T06:26:18.825Z,5.64
2023-01-11T06:28:45.779Z,5.64
2023-01-11T06:31:14.837Z,5.57
2023-01-11T06:33:43.040Z,5.44
2023-01-11T06:36:12.216Z,5.60
2023-01-11T06:38:39.450Z,5.67
2023-01-11T06:41:08.652Z,5.73
2023-01-11T06:43:37.973Z,5.76
2023-01-11T06:46:05.327Z,5.83
2023-01-11T06:48:32.367Z,5.81
2023-01-11T06:50:59.896Z,5.74
2023-01-11T06:53:29.060Z,5.81
2023-01-11T06:55:58.677Z,5.81
2023-01-11T06:58:26.586Z,5.83
2023-01-11T07:00:55.617Z,5.81
2023-01-11T07:03:24.477Z,5.83
2023-01-11T07:05:53.254Z,5.85
2023-01-11T07:08:20.645Z,5.87
2023-01-11T07:10:47.890Z,5.96
2023-01-11T07:13:18.608Z,5.94
2023-01-11T07:15:50.985Z,5.41
2023-01-11T07:18:19.294Z,5.90
2023-01-11T07:20:46.474Z,5.97
2023-01-11T07:23:13.609Z,5.96
2023-01-11T07:25:41.435Z,6.02
2023-01-11T07:28:09.123Z,6.00
2023-01-11T07:30:56.017Z,6.05
2023-01-11T07:33:25.602Z,6.14
2023-01-11T07:35:53.500Z,6.19
2023-01-11T07:38:20.472Z,6.17
2023-01-11T07:40:47.467Z,6.25
2023-01-11T07:43:15.211Z,6.30
2023-01-11T07:45:49.814Z,6.25
2023-01-11T07:48:26.322Z,6.25
2023-01-11T07:50:54.097Z,6.30
2023-01-11T07:53:21.460Z,6.39
2023-01-11T07:55:48.413Z,6.43
2023-01-11T07:58:15.719Z,6.52
2023-01-11T08:00:42.704Z,6.54
2023-01-11T08:03:10.377Z,6.51
2023-01-11T08:05:37.659Z,6.69
2023-01-11T08:08:05.686Z,6.70
2023-01-11T08:10:32.878Z,6.62
2023-01-11T08:13:18.677Z,6.73
2023-01-11T08:15:45.686Z,6.72
2023-01-11T08:18:13.119Z,6.80
2023-01-11T08:20:40.874Z,6.82
2023-01-11T08:23:10.084Z,6.97
2023-01-11T08:25:38.012Z,6.93
2023-01-11T08:28:06.631Z,6.53
2023-01-11T08:30:33.862Z,7.03
2023-01-11T08:33:06.939Z,7.03
2023-01-11T08:35:38.897Z,7.06
2023-01-11T08:38:06.094Z,7.01
2023-01-11T08:40:33.046Z,7.01
2023-01-11T08:42:59.897Z,6.98
2023-01-11T08:45:27.833Z,7.02
2023-01-11T08:47:55.371Z,7.03
2023-01-11T08:50:22.854Z,6.99
2023-01-11T08:52:51.361Z,7.02
2023-01-11T08:55:19.792Z,6.97
2023-01-11T08:57:47.290Z,7.05
2023-01-11T09:00:18.159Z,7.00
2023-01-11T09:02:45.919Z,7.02
2023-01-11T09:05:13.029Z,7.06
2023-01-11T09:07:40.089Z,7.10
2023-01-11T09:10:07.517Z,7.12
2023-01-11T09:12:34.581Z,6.98
2023-01-11T09:15:01.564Z,7.06
2023-01-11T09:17:28.512Z,7.08
2023-01-11T09:19:55.459Z,7.08
2023-01-11T09:22:22.368Z,7.10
2023-01-11T09:24:49.413Z,7.04
2023-01-11T09:27:16.812Z,7.00
2023-01-11T09:29:44.031Z,7.07
2023-01-11T09:32:10.916Z,7.06
2023-01-11T09:34:38.048Z,7.10
2023-01-11T09:37:06.998Z,7.00
2023-01-11T09:39:35.396Z,7.07
2023-01-11T09:42:32.595Z,7.09
2023-01-11T09:45:11.561Z,7.09
2023-01-11T09:47:47.385Z,7.04
2023-01-11T09:50:17.384Z,6.99
2023-01-11T09:52:52.995Z,6.94
2023-01-11T09:55:31.518Z,6.85
2023-01-11T09:58:07.622Z,7.03
2023-01-11T10:01:12.512Z,7.10
2023-01-11T10:03:52.249Z,7.06
2023-01-11T10:06:39.592Z,6.99
2023-01-11T10:18:29.211Z,7.03
2023-01-11T10:19:24.850Z,7.10
2023-01-11T10:21:55.306Z,7.09
2023-01-11T10:24:46.385Z,7.03
2023-01-11T10:27:59.076Z,7.09
2023-01-11T10:31:16.483Z,6.88
2023-01-11T10:34:06.004Z,6.98
2023-01-11T10:37:03.561Z,6.84
2023-01-11T10:39:56.657Z,6.87
2023-01-11T10:42:29.132Z,7.00
2023-01-11T10:45:14.815Z,6.95
2023-01-11T10:48:17.148Z,6.97
2023-01-11T10:51:09.729Z,6.87
2023-01-11T10:53:48.829Z,6.89
2023-01-11T10:56:42.825Z,6.87
2023-01-11T10:59:46.839Z,6.93
2023-01-11T11:02:49.229Z,6.86
2023-01-11T11:05:25.381Z,6.85
2023-01-11T11:07:58.066Z,6.88
2023-01-11T11:10:32.974Z,6.84
2023-01-11T11:13:20.570Z,6.83
2023-01-11T11:16:01.153Z,6.85
2023-01-11T11:18:28.339Z,6.63
2023-01-11T11:21:10.455Z,6.80
2023-01-11T11:23:38.792Z,6.82
2023-01-11T11:26:07.758Z,6.62
2023-01-11T11:28:34.733Z,6.76
2023-01-11T11:31:04.699Z,6.73
2023-01-11T11:33:39.635Z,6.70
2023-01-11T11:36:11.677Z,6.62
2023-01-11T11:38:41.698Z,6.53
2023-01-11T11:41:17.272Z,6.52
2023-01-11T11:43:48.512Z,6.50
2023-01-11T11:46:19.453Z,6.52
2023-01-11T11:49:08.572Z,6.48
2023-01-11T11:51:36.099Z,6.49
2023-01-11T11:54:03.343Z,6.48
2023-01-11T11:56:35.642Z,6.48
2023-01-11T11:59:09.302Z,6.47
2023-01-11T12:01:40.091Z,6.28
2023-01-11T12:04:22.451Z,6.43
2023-01-11T12:07:09.126Z,6.48
2023-01-11T12:09:36.950Z,6.28
2023-01-11T12:12:04.575Z,6.42
2023-01-11T12:14:35.208Z,6.42
2023-01-11T12:17:25.139Z,6.43
2023-01-11T12:19:51.987Z,6.29
2023-01-11T12:22:23.028Z,6.40
2023-01-11T12:25:08.183Z,6.47
2023-01-11T12:27:47.000Z,6.48
2023-01-11T12:30:35.874Z,6.49
2023-01-11T12:33:06.164Z,6.51
2023-01-11T12:35:41.308Z,6.04
2023-01-11T12:38:40.158Z,6.52
2023-01-11T12:41:47.650Z,6.55
2023-01-11T12:44:26.666Z,6.60
2023-01-11T12:47:20.867Z,6.62
2023-01-11T12:49:57.520Z,6.57
2023-01-11T12:52:29.105Z,6.65
2023-01-11T12:55:25.718Z,6.68
2023-01-11T12:58:14.264Z,6.45
2023-01-11T13:01:07.047Z,6.47
2023-01-11T13:03:50.123Z,6.62
2023-01-11T13:06:31.911Z,6.58
2023-01-11T13:09:21.206Z,6.57
2023-01-11T13:12:27.201Z,6.64
2023-01-11T13:15:13.094Z,6.64
2023-01-11T13:17:40.011Z,6.62
2023-01-11T13:20:15.926Z,6.60
2023-01-11T13:22:48.729Z,6.63
2023-01-11T13:25:32.098Z,6.64
2023-01-11T13:28:02.872Z,6.36
2023-01-11T13:30:31.937Z,6.58
2023-01-11T13:33:10.974Z,6.59
2023-01-11T13:35:50.110Z,6.49
2023-01-11T13:38:43.504Z,6.55
2023-01-11T13:41:13.625Z,6.53
2023-01-11T13:43:56.837Z,6.53
2023-01-11T13:46:48.807Z,6.48
2023-01-11T13:49:37.291Z,6.41
2023-01-11T13:52:16.520Z,6.33
2023-01-11T13:55:00.974Z,6.37
2023-01-11T13:58:12.624Z,6.22
2023-01-11T14:00:49.778Z,6.20
2023-01-11T14:03:31.169Z,6.27
2023-01-11T14:06:03.814Z,6.24
2023-01-11T14:08:52.054Z,6.20
2023-01-11T14:11:37.631Z,6.16
2023-01-11T14:14:13.620Z,6.17
2023-01-11T14:17:12.936Z,6.16
2023-01-11T14:19:49.396Z,6.11
2023-01-11T14:22:19.130Z,6.16
2023-01-11T14:24:57.537Z,6.05
2023-01-11T14:27:30.269Z,6.18
2023-01-11T14:30:18.656Z,6.14
2023-01-11T14:32:45.756Z,6.15
2023-01-11T14:35:21.613Z,6.09
2023-01-11T14:37:57.465Z,6.12
2023-01-11T14:40:49.010Z,6.15
2023-01-11T14:43:33.775Z,6.07
2023-01-11T14:46:28.204Z,6.10
2023-01-11T14:49:13.205Z,6.04
2023-01-11T14:52:00.328Z,6.06
2023-01-11T14:54:40.390Z,5.90
2023-01-11T14:57:43.584Z,5.90
2023-01-11T15:00:19.645Z,6.05
2023-01-11T15:03:07.172Z,5.99
2023-01-11T15:05:38.298Z,5.98
2023-01-11T15:08:14.235Z,5.98
2023-01-11T15:11:02.855Z,5.94
2023-01-11T15:13:37.052Z,5.97
2023-01-11T15:16:49.747Z,5.93
2023-01-11T15:19:43.998Z,5.93
2023-01-11T15:22:25.371Z,5.81
2023-01-11T15:24:57.460Z,5.88
2023-01-11T15:27:33.633Z,5.83
2023-01-11T15:30:01.292Z,5.79
2023-01-11T15:32:32.181Z,5.93
2023-01-11T15:35:32.001Z,5.93
2023-01-11T15:38:09.053Z,5.82
2023-01-11T15:40:46.577Z,5.94
2023-01-11T15:43:29.687Z,6.02
2023-01-11T15:46:37.460Z,6.05
2023-01-11T15:49:16.768Z,6.06
2023-01-11T15:52:35.625Z,6.05
2023-01-11T15:55:24.230Z,6.09
2023-01-11T15:58:18.328Z,6.07
2023-01-11T16:01:02.412Z,6.05
2023-01-11T16:04:08.088Z,6.06
2023-01-11T16:06:50.479Z,6.04
2023-01-11T16:09:23.338Z,6.01
2023-01-11T16:12:12.566Z,5.99
2023-01-11T16:15:12.006Z,5.99
2023-01-11T16:17:44.282Z,5.94
2023-01-11T16:20:20.140Z,6.03
2023-01-11T16:22:52.824Z,5.98
2023-01-11T16:25:21.601Z,5.92
2023-01-11T16:27:53.919Z,6.04
2023-01-11T16:30:21.912Z,5.93
2023-01-11T16:32:48.846Z,6.00
2023-01-11T16:35:24.342Z,6.05
2023-01-11T16:37:58.781Z,6.02
2023-01-11T16:40:42.314Z,6.02
2023-01-11T16:43:38.629Z,6.04
2023-01-11T16:46:06.150Z,6.03
2023-01-11T16:48:33.073Z,6.04
2023-01-11T16:51:17.426Z,6.02
2023-01-11T16:53:55.358Z,6.03
2023-01-11T16:56:24.072Z,5.49
2023-01-11T16:59:21.616Z,5.78
2023-01-11T17:02:00.557Z,5.99
2023-01-11T17:04:30.069Z,5.98
2023-01-11T17:07:20.557Z,5.96
2023-01-11T17:09:47.509Z,5.96
2023-01-11T17:12:21.630Z,5.92
2023-01-11T17:14:51.525Z,5.97
2023-01-11T17:17:19.889Z,5.91
2023-01-11T17:19:50.951Z,5.83
2023-01-11T17:22:33.810Z,5.89
2023-01-11T17:25:03.839Z,5.79
2023-01-11T17:27:45.109Z,5.99
2023-01-11T17:30:24.808Z,5.95
2023-01-11T17:32:54.448Z,5.96
2023-01-11T17:35:24.059Z,5.93
2023-01-11T17:37:54.873Z,5.90
2023-01-11T17:40:26.575Z,5.94
2023-01-11T17:43:16.203Z,5.91
2023-01-11T17:46:14.310Z,5.92
2023-01-11T17:49:00.087Z,5.36
2023-01-11T17:51:33.826Z,5.96
2023-01-11T17:54:02.099Z,5.99
2023-01-11T17:56:36.209Z,5.97
2023-01-11T17:59:24.543Z,5.92
2023-01-11T18:02:05.790Z,5.88
2023-01-11T18:04:33.410Z,5.84
2023-01-11T18:07:19.186Z,5.83
2023-01-11T18:09:57.458Z,5.81
2023-01-11T18:12:39.307Z,5.85
2023-01-11T18:15:07.460Z,5.84
2023-01-11T18:17:42.203Z,5.92
2023-01-11T18:20:16.496Z,5.92
2023-01-11T18:23:25.044Z,5.86
2023-01-11T18:26:25.478Z,5.82
2023-01-11T18:28:52.459Z,5.74
2023-01-11T18:31:19.493Z,5.71
2023-01-11T18:33:46.481Z,5.81
2023-01-11T18:36:21.824Z,5.88
2023-01-11T18:38:49.484Z,5.89
2023-01-11T18:41:37.870Z,5.87
2023-01-11T18:44:05.575Z,5.98
2023-01-11T18:46:32.545Z,5.97
2023-01-11T18:49:03.377Z,5.95
2023-01-11T18:51:41.991Z,5.91
2023-01-11T18:54:35.798Z,5.92
2023-01-11T18:57:05.821Z,5.78
2023-01-11T18:59:33.277Z,5.83
2023-01-11T19:02:35.578Z,5.82
2023-01-11T19:05:07.177Z,5.83
2023-01-11T19:07:35.244Z,5.81
2023-01-11T19:10:02.697Z,5.75
2023-01-11T19:12:35.400Z,5.79
2023-01-11T19:15:05.769Z,5.80
2023-01-11T19:17:34.284Z,5.78
2023-01-11T19:20:01.900Z,5.80
2023-01-11T19:22:32.845Z,5.74
2023-01-11T19:25:04.761Z,5.73
2023-01-11T19:27:33.552Z,5.79
2023-01-11T19:30:01.536Z,5.69
2023-01-11T19:32:29.455Z,5.77
2023-01-11T19:35:17.831Z,5.67
2023-01-11T19:37:45.865Z,5.65
2023-01-11T19:40:37.079Z,5.51
2023-01-11T19:43:06.134Z,5.31
2023-01-11T19:45:38.420Z,5.40
2023-01-11T19:48:07.439Z,5.30
2023-01-11T19:50:35.287Z,5.35
2023-01-11T19:53:03.378Z,5.38
2023-01-11T19:55:32.024Z,5.19
2023-01-11T19:58:00.194Z,5.21
2023-01-11T20:00:28.127Z,5.23
2023-01-11T20:02:55.379Z,5.22
2023-01-11T20:05:23.563Z,5.25
2023-01-11T20:07:51.209Z,5.21
2023-01-11T20:10:18.864Z,5.23
2023-01-11T20:12:46.790Z,5.24
2023-01-11T20:15:14.502Z,5.21
2023-01-11T20:17:41.908Z,5.18
2023-01-11T20:20:11.115Z,5.19
2023-01-11T20:22:39.052Z,5.18
2023-01-11T20:25:06.894Z,5.14
2023-01-11T20:27:34.375Z,5.06
2023-01-11T20:30:01.573Z,5.14
2023-01-11T20:32:40.866Z,5.20
2023-01-11T20:35:09.951Z,5.16
2023-01-11T20:37:37.552Z,5.24
2023-01-11T20:40:05.679Z,5.31
2023-01-11T20:42:33.693Z,5.31
2023-01-11T20:45:02.046Z,5.27
2023-01-11T20:47:29.986Z,5.33
2023-01-11T20:49:57.638Z,5.36
2023-01-11T20:52:25.355Z,5.31
2023-01-11T20:54:53.210Z,5.34
2023-01-11T20:57:20.302Z,5.16
2023-01-11T20:59:47.845Z,5.05
2023-01-11T21:02:16.194Z,5.04
2023-01-11T21:04:43.924Z,5.13
2023-01-11T21:07:11.097Z,5.01
2023-01-11T21:09:38.645Z,4.93
2023-01-11T21:12:07.758Z,4.84
2023-01-11T21:14:36.697Z,4.87
2023-01-11T21:17:04.012Z,4.82
2023-01-11T21:19:31.875Z,4.74
2023-01-11T21:21:59.219Z,4.75
2023-01-11T21:24:26.785Z,4.73
2023-01-11T21:26:54.102Z,4.75
2023-01-11T21:29:22.111Z,4.76
2023-01-11T21:31:49.295Z,4.59
2023-01-11T21:34:16.414Z,4.78
2023-01-11T21:36:43.954Z,4.77
2023-01-11T21:39:14.165Z,4.65
2023-01-11T21:41:58.476Z,4.73
2023-01-11T21:44:34.100Z,4.73
2023-01-11T21:47:03.864Z,4.63
2023-01-11T21:49:33.913Z,4.69
2023-01-11T21:52:00.940Z,4.73
2023-01-11T21:54:28.002Z,4.69
2023-01-11T21:56:55.143Z,4.68
2023-01-11T21:59:22.589Z,4.57
2023-01-11T22:01:49.761Z,4.50
2023-01-11T22:04:21.658Z,4.50
2023-01-11T22:06:55.671Z,4.53
2023-01-11T22:09:26.965Z,4.59
2023-01-11T22:11:54.032Z,4.63
2023-01-11T22:14:22.616Z,4.48
2023-01-11T22:16:50.450Z,4.35
2023-01-11T22:19:17.497Z,4.20
2023-01-11T22:21:44.570Z,4.04
2023-01-11T22:24:12.227Z,4.15
2023-01-11T22:26:39.873Z,4.17
2023-01-11T22:29:17.020Z,3.70
2023-01-11T22:32:01.504Z,4.09
2023-01-11T22:34:28.569Z,4.17
2023-01-11T22:36:55.835Z,4.11
2023-01-11T22:39:24.158Z,4.18
2023-01-11T22:41:51.419Z,4.13
2023-01-11T22:44:18.543Z,4.07
2023-01-11T22:46:48.504Z,3.90
2023-01-11T22:49:17.404Z,3.98
2023-01-11T22:51:44.608Z,3.90
2023-01-11T22:54:12.433Z,3.79
2023-01-11T22:56:39.501Z,3.87
2023-01-11T22:59:06.741Z,3.87
2023-01-11T23:01:36.365Z,3.56
2023-01-11T23:04:04.058Z,3.79
2023-01-11T23:06:34.242Z,3.85
2023-01-11T23:09:01.462Z,3.76
2023-01-11T23:12:05.971Z,3.74
2023-01-11T23:14:33.838Z,3.55
2023-01-11T23:17:06.529Z,3.47
2023-01-11T23:19:35.710Z,3.50
2023-01-11T23:22:03.413Z,3.49
2023-01-11T23:24:30.637Z,3.62
2023-01-11T23:26:58.058Z,3.48
2023-01-11T23:29:25.528Z,3.43
2023-01-11T23:31:52.862Z,3.44
2023-01-11T23:34:19.769Z,3.47
2023-01-11T23:36:46.745Z,3.51
2023-01-11T23:39:16.445Z,3.16
2023-01-11T23:42:01.849Z,3.33
2023-01-11T23:44:29.425Z,3.28
2023-01-11T23:47:14.792Z,3.25
2023-01-11T23:49:43.716Z,3.34
2023-01-11T23:52:10.949Z,3.37
2023-01-11T23:54:38.029Z,3.25
2023-01-11T23:57:05.251Z,3.40
2023-01-11T23:59:32.295Z,3.45
